This is the latest recevied weather packets stored in our database for station/object DM0MR. If no packets are shown the sender has not sent any weather packets the latest 10 day(s).
| Time | Temp. | Humidity | Pressure | Rain* | Wind** | Luminosity | Snow |
|---|---|---|---|---|---|---|---|
| 1787832492 | 28.33° C | 52% | 1012.9 hPa | 0 mm | - | - | - |
| 1787830691 | 27.78° C | 54% | 1013.1 hPa | 0 mm | - | - | - |
| 1787829790 | 27.78° C | 53% | 1013.3 hPa | 0 mm | - | - | - |
| 1787827991 | 27.22° C | 53% | 1013.7 hPa | 0 mm | - | - | - |
| 1787827093 | 26.67° C | 56% | 1013.8 hPa | 0 mm | - | - | - |
| 1787826192 | 26.67° C | 56% | 1013.8 hPa | 0 mm | - | - | - |
| 1787823490 | 25° C | 59% | 1014.3 hPa | 0 mm | - | - | - |
| 1787822591 | 24.44° C | 63% | 1014.6 hPa | 0 mm | - | - | - |
| 1787820792 | 23.89° C | 63% | 1014.5 hPa | 0 mm | - | - | - |
| 1787819889 | 22.78° C | 64% | 1014.8 hPa | 0 mm | - | - | - |
| 1787817191 | 22.22° C | 66% | 1014.7 hPa | 0 mm | - | - | - |
| 1787815391 | 21.11° C | 73% | 1014.7 hPa | 0 mm | - | - | - |
| 1787813591 | 20° C | 75% | 1015 hPa | 0 mm | - | - | - |
| 1787812693 | 20° C | 75% | 1014.8 hPa | 0 mm | - | - | - |
| 1787811791 | 19.44° C | 79% | 1014.8 hPa | 0 mm | - | - | - |
| 1787810891 | 17.22° C | 88% | 1015.2 hPa | 0 mm | - | - | - |
| 1787808191 | 13.33° C | 99% | 1014.9 hPa | 0 mm | - | - | - |
| 1787807289 | 12.78° C | 98% | 1014.9 hPa | 0 mm | - | - | - |
| 1787804593 | 12.22° C | 98% | 1014.7 hPa | 0 mm | - | - | - |
| 1787803691 | 12.22° C | 98% | 1015 hPa | 0 mm | - | - | - |
| 1787802791 | 12.22° C | 98% | 1015.2 hPa | 0 mm | - | - | - |
| 1787801891 | 12.22° C | 98% | 1015.2 hPa | 0 mm | - | - | - |
| 1787800090 | 12.22° C | 98% | 1015.5 hPa | 0 mm | - | - | - |
| 1787799191 | 12.22° C | 97% | 1015.4 hPa | 0 mm | - | - | - |
| 1787798290 | 12.22° C | 97% | 1015.2 hPa | 0 mm | - | - | - |
* Rain latest hour (hover to see other rain measurements)
** Current wind speed in m/s (hover to see current wind gust speed)